Coleman, Oklahoma
Current Conditions -  °F | °C
As of 12:55 PM on Monday 20 Oct 2014 (Local Time) from KAQR Reporting Station
Clear Clear  
Wind Chill: 73°   Ceiling: Unl
Heat Index: 73°   Visibility: 10mi
Dew Point: 57°   Wind: 3mph
Humidity: 57%   Direction: 220°SW
Pressure: 30.07"   Gusts: NA
Location:  34.27°N, 96.42°W
Report Text: KAQR 201755Z AUTO 22003KT 10SM CLR 23/14 A3007 RMK AO2
Loading
Personal Weather Stations






























Interactive Weather Map
Tropical Storm Tracking
New forecast layout! Learn more

10-Day Weather Forecast

Advertisements
Track Severe Weather on mobile